Search for airport 
image banner adimage banner adimage banner ad
image banner ad

50CN - Palmdale Medical Center

Located in Palmdale, United States

ICAO - 50CN, IATA -

Data provided by Airmate  

General information

Coordinates: N34°34'56" W118°8'42"
Elevation is 2743 feet MSL.
 
View others Airports in California

Operational data

Special qualification required
Current time UTC:
Current local time:
Weather at : KPMD - Palmdale Usaf Plant 42 ( 8 km )
METAR: KPMD 141153Z AUTO 10SM CLR 18/05 A2998 RMK AO2 SLP124 T01780050 10250 20178 51003 $
TAF: KPMD 141128Z 1412/1512 25010KT P6SM SKC FM142000 25017G25KT P6SM SKC FM150600 28015KT P6SM SKC AMD LTD TO CLD AND VIS
View NOTAMs / SUP AIP / TFR affecting this airport [VIEW]
Communications frequencies: [VIEW]

Runways:

Airport contact information

Address: Palmdale United States

Satellite view of 50CN